sensor_id;sensor_type;location;lat;lon;timestamp;P1;durP1;ratioP1;P2;durP2;ratioP2
35602;SDS011;21725;50.836;4.368;2023-04-07T00:00:25;16.40;;;6.53;;
35602;SDS011;21725;50.836;4.368;2023-04-07T00:03:28;12.57;;;7.05;;
35602;SDS011;21725;50.836;4.368;2023-04-07T00:06:39;16.67;;;7.90;;
35602;SDS011;21725;50.836;4.368;2023-04-07T00:09:48;18.08;;;7.35;;
35602;SDS011;21725;50.836;4.368;2023-04-07T00:12:52;14.20;;;7.38;;
35602;SDS011;21725;50.836;4.368;2023-04-07T00:16:00;14.95;;;7.68;;
35602;SDS011;21725;50.836;4.368;2023-04-07T00:19:08;15.25;;;7.97;;
35602;SDS011;21725;50.836;4.368;2023-04-07T00:22:09;16.02;;;9.00;;
35602;SDS011;21725;50.836;4.368;2023-04-07T00:25:13;18.92;;;10.02;;
35602;SDS011;21725;50.836;4.368;2023-04-07T00:28:43;16.27;;;8.30;;
35602;SDS011;21725;50.836;4.368;2023-04-07T00:31:54;20.25;;;9.80;;
35602;SDS011;21725;50.836;4.368;2023-04-07T00:34:59;17.80;;;9.32;;
35602;SDS011;21725;50.836;4.368;2023-04-07T00:38:02;17.92;;;7.97;;
35602;SDS011;21725;50.836;4.368;2023-04-07T00:41:08;15.23;;;7.57;;
35602;SDS011;21725;50.836;4.368;2023-04-07T00:44:19;17.45;;;8.35;;
35602;SDS011;21725;50.836;4.368;2023-04-07T00:47:20;17.20;;;7.57;;
35602;SDS011;21725;50.836;4.368;2023-04-07T00:50:29;16.35;;;8.35;;
35602;SDS011;21725;50.836;4.368;2023-04-07T00:53:30;17.08;;;8.68;;
35602;SDS011;21725;50.836;4.368;2023-04-07T00:56:40;15.65;;;7.53;;
35602;SDS011;21725;50.836;4.368;2023-04-07T00:59:44;14.45;;;8.35;;
35602;SDS011;21725;50.836;4.368;2023-04-07T01:02:54;16.08;;;8.43;;
35602;SDS011;21725;50.836;4.368;2023-04-07T01:06:05;13.13;;;8.18;;
35602;SDS011;21725;50.836;4.368;2023-04-07T01:09:42;19.23;;;8.43;;
35602;SDS011;21725;50.836;4.368;2023-04-07T01:15:51;17.75;;;10.32;;
35602;SDS011;21725;50.836;4.368;2023-04-07T01:22:32;17.85;;;9.52;;
35602;SDS011;21725;50.836;4.368;2023-04-07T01:26:06;14.45;;;8.80;;
35602;SDS011;21725;50.836;4.368;2023-04-07T01:32:30;11.90;;;8.00;;
35602;SDS011;21725;50.836;4.368;2023-04-07T01:35:33;20.65;;;10.38;;
35602;SDS011;21725;50.836;4.368;2023-04-07T01:38:47;15.55;;;9.02;;
35602;SDS011;21725;50.836;4.368;2023-04-07T01:41:50;17.00;;;9.00;;
35602;SDS011;21725;50.836;4.368;2023-04-07T01:44:52;20.15;;;10.32;;
35602;SDS011;21725;50.836;4.368;2023-04-07T01:48:04;18.85;;;10.15;;
35602;SDS011;21725;50.836;4.368;2023-04-07T01:51:06;17.05;;;9.23;;
35602;SDS011;21725;50.836;4.368;2023-04-07T01:54:20;21.38;;;10.65;;
35602;SDS011;21725;50.836;4.368;2023-04-07T01:57:29;18.98;;;10.35;;
35602;SDS011;21725;50.836;4.368;2023-04-07T02:00:40;19.77;;;9.55;;
35602;SDS011;21725;50.836;4.368;2023-04-07T02:03:43;18.08;;;9.65;;
35602;SDS011;21725;50.836;4.368;2023-04-07T02:06:58;19.65;;;9.80;;
35602;SDS011;21725;50.836;4.368;2023-04-07T02:10:03;15.90;;;9.00;;
35602;SDS011;21725;50.836;4.368;2023-04-07T02:13:18;19.10;;;10.10;;
35602;SDS011;21725;50.836;4.368;2023-04-07T02:16:24;21.30;;;8.73;;
35602;SDS011;21725;50.836;4.368;2023-04-07T02:19:28;17.00;;;8.90;;
35602;SDS011;21725;50.836;4.368;2023-04-07T02:22:29;12.63;;;8.88;;
35602;SDS011;21725;50.836;4.368;2023-04-07T02:25:32;15.75;;;9.93;;
35602;SDS011;21725;50.836;4.368;2023-04-07T02:28:33;16.77;;;8.57;;
35602;SDS011;21725;50.836;4.368;2023-04-07T02:31:36;13.65;;;8.73;;
35602;SDS011;21725;50.836;4.368;2023-04-07T02:34:39;18.38;;;8.75;;
35602;SDS011;21725;50.836;4.368;2023-04-07T02:37:45;16.48;;;10.15;;
35602;SDS011;21725;50.836;4.368;2023-04-07T02:40:54;15.77;;;9.27;;
35602;SDS011;21725;50.836;4.368;2023-04-07T02:43:55;15.60;;;8.45;;
35602;SDS011;21725;50.836;4.368;2023-04-07T02:47:18;15.00;;;9.65;;
35602;SDS011;21725;50.836;4.368;2023-04-07T02:50:19;16.42;;;9.63;;
35602;SDS011;21725;50.836;4.368;2023-04-07T02:53:29;10.85;;;7.40;;
35602;SDS011;21725;50.836;4.368;2023-04-07T02:57:00;12.38;;;8.05;;
35602;SDS011;21725;50.836;4.368;2023-04-07T03:00:03;14.82;;;8.63;;
35602;SDS011;21725;50.836;4.368;2023-04-07T03:03:07;15.05;;;8.25;;
35602;SDS011;21725;50.836;4.368;2023-04-07T03:06:30;16.80;;;10.55;;
35602;SDS011;21725;50.836;4.368;2023-04-07T03:10:04;19.13;;;9.90;;
35602;SDS011;21725;50.836;4.368;2023-04-07T03:13:07;18.80;;;10.35;;
35602;SDS011;21725;50.836;4.368;2023-04-07T03:16:10;22.40;;;11.52;;
35602;SDS011;21725;50.836;4.368;2023-04-07T03:19:15;24.75;;;12.00;;
35602;SDS011;21725;50.836;4.368;2023-04-07T03:22:16;25.35;;;12.85;;
35602;SDS011;21725;50.836;4.368;2023-04-07T03:25:27;34.17;;;13.68;;
35602;SDS011;21725;50.836;4.368;2023-04-07T03:28:33;30.90;;;14.02;;
35602;SDS011;21725;50.836;4.368;2023-04-07T03:31:36;34.72;;;13.70;;
35602;SDS011;21725;50.836;4.368;2023-04-07T03:34:47;26.45;;;14.20;;
35602;SDS011;21725;50.836;4.368;2023-04-07T03:37:50;32.05;;;13.50;;
35602;SDS011;21725;50.836;4.368;2023-04-07T03:40:53;34.95;;;15.65;;
35602;SDS011;21725;50.836;4.368;2023-04-07T03:43:54;32.75;;;14.52;;
35602;SDS011;21725;50.836;4.368;2023-04-07T03:46:57;27.88;;;12.40;;
35602;SDS011;21725;50.836;4.368;2023-04-07T03:49:59;34.50;;;13.75;;
35602;SDS011;21725;50.836;4.368;2023-04-07T03:53:10;31.20;;;14.20;;
35602;SDS011;21725;50.836;4.368;2023-04-07T03:56:34;29.33;;;13.05;;
35602;SDS011;21725;50.836;4.368;2023-04-07T03:59:38;30.17;;;14.82;;
35602;SDS011;21725;50.836;4.368;2023-04-07T04:02:53;33.65;;;14.55;;
35602;SDS011;21725;50.836;4.368;2023-04-07T04:05:59;30.80;;;16.13;;
35602;SDS011;21725;50.836;4.368;2023-04-07T04:42:49;36.78;;;17.67;;
35602;SDS011;21725;50.836;4.368;2023-04-07T04:46:01;37.53;;;16.27;;
35602;SDS011;21725;50.836;4.368;2023-04-07T04:49:01;35.55;;;16.77;;
35602;SDS011;21725;50.836;4.368;2023-04-07T04:52:07;36.65;;;16.23;;
35602;SDS011;21725;50.836;4.368;2023-04-07T04:55:10;34.15;;;17.85;;
35602;SDS011;21725;50.836;4.368;2023-04-07T04:58:33;39.45;;;16.52;;
35602;SDS011;21725;50.836;4.368;2023-04-07T05:01:46;36.42;;;17.08;;
35602;SDS011;21725;50.836;4.368;2023-04-07T05:05:01;36.55;;;16.85;;
35602;SDS011;21725;50.836;4.368;2023-04-07T05:08:23;41.65;;;18.15;;
35602;SDS011;21725;50.836;4.368;2023-04-07T05:11:40;33.45;;;16.88;;
35602;SDS011;21725;50.836;4.368;2023-04-07T05:14:49;38.72;;;18.25;;
35602;SDS011;21725;50.836;4.368;2023-04-07T05:17:52;34.00;;;16.15;;
35602;SDS011;21725;50.836;4.368;2023-04-07T05:21:03;33.30;;;17.95;;
35602;SDS011;21725;50.836;4.368;2023-04-07T05:24:06;28.65;;;14.80;;
35602;SDS011;21725;50.836;4.368;2023-04-07T05:27:14;31.77;;;15.98;;
35602;SDS011;21725;50.836;4.368;2023-04-07T05:30:18;35.60;;;17.77;;
35602;SDS011;21725;50.836;4.368;2023-04-07T05:33:30;32.83;;;16.02;;
35602;SDS011;21725;50.836;4.368;2023-04-07T05:36:36;43.75;;;17.48;;
35602;SDS011;21725;50.836;4.368;2023-04-07T05:39:42;41.65;;;15.80;;
35602;SDS011;21725;50.836;4.368;2023-04-07T05:42:51;33.53;;;17.17;;
35602;SDS011;21725;50.836;4.368;2023-04-07T05:46:02;29.65;;;16.42;;
35602;SDS011;21725;50.836;4.368;2023-04-07T05:49:08;32.35;;;15.82;;
35602;SDS011;21725;50.836;4.368;2023-04-07T05:52:09;40.67;;;17.70;;
35602;SDS011;21725;50.836;4.368;2023-04-07T05:58:26;31.50;;;16.85;;
35602;SDS011;21725;50.836;4.368;2023-04-07T06:01:29;28.85;;;15.02;;
35602;SDS011;21725;50.836;4.368;2023-04-07T06:04:30;28.63;;;15.35;;
35602;SDS011;21725;50.836;4.368;2023-04-07T06:07:40;28.10;;;14.68;;
35602;SDS011;21725;50.836;4.368;2023-04-07T06:10:46;35.72;;;17.02;;
35602;SDS011;21725;50.836;4.368;2023-04-07T06:13:58;32.65;;;16.30;;
35602;SDS011;21725;50.836;4.368;2023-04-07T06:17:07;30.52;;;17.30;;
35602;SDS011;21725;50.836;4.368;2023-04-07T06:20:08;35.80;;;16.92;;
35602;SDS011;21725;50.836;4.368;2023-04-07T06:23:12;30.83;;;15.52;;
35602;SDS011;21725;50.836;4.368;2023-04-07T06:26:15;38.08;;;22.10;;
35602;SDS011;21725;50.836;4.368;2023-04-07T06:29:16;35.88;;;21.63;;
35602;SDS011;21725;50.836;4.368;2023-04-07T06:32:22;39.80;;;21.20;;
35602;SDS011;21725;50.836;4.368;2023-04-07T06:35:33;31.90;;;16.90;;
35602;SDS011;21725;50.836;4.368;2023-04-07T06:38:39;32.13;;;18.60;;
35602;SDS011;21725;50.836;4.368;2023-04-07T06:41:48;44.20;;;27.83;;
35602;SDS011;21725;50.836;4.368;2023-04-07T06:44:49;35.45;;;17.92;;
35602;SDS011;21725;50.836;4.368;2023-04-07T06:47:55;41.22;;;27.38;;
35602;SDS011;21725;50.836;4.368;2023-04-07T06:51:13;25.42;;;15.68;;
35602;SDS011;21725;50.836;4.368;2023-04-07T06:54:19;26.90;;;13.88;;
35602;SDS011;21725;50.836;4.368;2023-04-07T06:57:20;34.10;;;22.05;;
35602;SDS011;21725;50.836;4.368;2023-04-07T07:00:23;24.73;;;14.77;;
35602;SDS011;21725;50.836;4.368;2023-04-07T07:03:24;30.95;;;17.27;;
35602;SDS011;21725;50.836;4.368;2023-04-07T07:06:38;20.27;;;13.38;;
35602;SDS011;21725;50.836;4.368;2023-04-07T07:10:04;34.45;;;21.80;;
35602;SDS011;21725;50.836;4.368;2023-04-07T07:13:32;22.90;;;15.23;;
35602;SDS011;21725;50.836;4.368;2023-04-07T07:16:36;31.88;;;22.05;;
35602;SDS011;21725;50.836;4.368;2023-04-07T07:19:40;29.77;;;19.52;;
35602;SDS011;21725;50.836;4.368;2023-04-07T07:22:40;31.38;;;21.70;;
35602;SDS011;21725;50.836;4.368;2023-04-07T07:25:49;34.63;;;22.08;;
35602;SDS011;21725;50.836;4.368;2023-04-07T07:29:16;27.95;;;16.15;;
35602;SDS011;21725;50.836;4.368;2023-04-07T07:32:17;38.20;;;24.30;;
35602;SDS011;21725;50.836;4.368;2023-04-07T07:35:20;32.13;;;19.88;;
35602;SDS011;21725;50.836;4.368;2023-04-07T07:38:21;25.80;;;17.17;;
35602;SDS011;21725;50.836;4.368;2023-04-07T07:41:32;27.50;;;17.90;;
35602;SDS011;21725;50.836;4.368;2023-04-07T07:44:33;23.48;;;14.35;;
35602;SDS011;21725;50.836;4.368;2023-04-07T07:47:43;21.92;;;12.23;;
35602;SDS011;21725;50.836;4.368;2023-04-07T07:50:47;22.27;;;14.18;;
35602;SDS011;21725;50.836;4.368;2023-04-07T07:53:57;33.88;;;22.35;;
35602;SDS011;21725;50.836;4.368;2023-04-07T07:57:01;26.40;;;14.90;;
35602;SDS011;21725;50.836;4.368;2023-04-07T08:00:02;17.42;;;11.63;;
35602;SDS011;21725;50.836;4.368;2023-04-07T08:03:13;25.85;;;16.77;;
35602;SDS011;21725;50.836;4.368;2023-04-07T08:06:23;53.92;;;31.52;;
35602;SDS011;21725;50.836;4.368;2023-04-07T08:09:26;16.58;;;9.23;;
35602;SDS011;21725;50.836;4.368;2023-04-07T08:12:32;17.63;;;11.35;;
35602;SDS011;21725;50.836;4.368;2023-04-07T08:15:38;11.20;;;6.88;;
35602;SDS011;21725;50.836;4.368;2023-04-07T08:18:56;49.10;;;30.90;;
35602;SDS011;21725;50.836;4.368;2023-04-07T08:22:02;34.88;;;19.17;;
35602;SDS011;21725;50.836;4.368;2023-04-07T08:25:06;30.98;;;17.83;;
35602;SDS011;21725;50.836;4.368;2023-04-07T08:28:15;24.50;;;14.75;;
35602;SDS011;21725;50.836;4.368;2023-04-07T08:31:20;13.98;;;7.80;;
35602;SDS011;21725;50.836;4.368;2023-04-07T08:34:27;11.18;;;6.60;;
35602;SDS011;21725;50.836;4.368;2023-04-07T08:41:26;11.93;;;6.28;;
35602;SDS011;21725;50.836;4.368;2023-04-07T08:45:03;19.73;;;9.82;;
35602;SDS011;21725;50.836;4.368;2023-04-07T08:48:16;13.57;;;8.45;;
35602;SDS011;21725;50.836;4.368;2023-04-07T08:51:31;11.20;;;5.82;;
35602;SDS011;21725;50.836;4.368;2023-04-07T08:54:34;18.80;;;13.07;;
35602;SDS011;21725;50.836;4.368;2023-04-07T08:57:38;11.07;;;6.95;;
35602;SDS011;21725;50.836;4.368;2023-04-07T09:00:44;11.32;;;7.07;;
35602;SDS011;21725;50.836;4.368;2023-04-07T09:03:50;27.27;;;12.63;;
35602;SDS011;21725;50.836;4.368;2023-04-07T09:07:00;10.30;;;7.40;;
35602;SDS011;21725;50.836;4.368;2023-04-07T09:10:03;11.77;;;5.63;;
35602;SDS011;21725;50.836;4.368;2023-04-07T09:13:15;13.40;;;8.50;;
35602;SDS011;21725;50.836;4.368;2023-04-07T09:16:19;10.18;;;4.68;;
35602;SDS011;21725;50.836;4.368;2023-04-07T09:19:40;12.88;;;7.38;;
35602;SDS011;21725;50.836;4.368;2023-04-07T09:22:44;13.25;;;6.55;;
35602;SDS011;21725;50.836;4.368;2023-04-07T09:25:49;16.00;;;7.07;;
35602;SDS011;21725;50.836;4.368;2023-04-07T09:28:54;15.23;;;9.43;;
35602;SDS011;21725;50.836;4.368;2023-04-07T09:32:09;15.35;;;5.15;;
35602;SDS011;21725;50.836;4.368;2023-04-07T09:35:33;16.40;;;8.38;;
35602;SDS011;21725;50.836;4.368;2023-04-07T09:42:08;28.33;;;16.73;;
35602;SDS011;21725;50.836;4.368;2023-04-07T09:45:08;11.82;;;5.35;;
35602;SDS011;21725;50.836;4.368;2023-04-07T09:48:22;9.98;;;5.57;;
35602;SDS011;21725;50.836;4.368;2023-04-07T09:51:24;28.05;;;16.33;;
35602;SDS011;21725;50.836;4.368;2023-04-07T09:54:47;12.07;;;5.65;;
35602;SDS011;21725;50.836;4.368;2023-04-07T09:57:54;9.40;;;3.90;;
35602;SDS011;21725;50.836;4.368;2023-04-07T10:00:55;5.72;;;2.70;;
35602;SDS011;21725;50.836;4.368;2023-04-07T10:03:59;9.77;;;3.00;;
35602;SDS011;21725;50.836;4.368;2023-04-07T10:07:09;8.23;;;2.97;;
35602;SDS011;21725;50.836;4.368;2023-04-07T10:55:32;8.80;;;2.67;;
35602;SDS011;21725;50.836;4.368;2023-04-07T10:58:40;5.03;;;2.63;;
35602;SDS011;21725;50.836;4.368;2023-04-07T11:01:41;8.60;;;3.42;;
35602;SDS011;21725;50.836;4.368;2023-04-07T11:04:44;11.63;;;4.03;;
35602;SDS011;21725;50.836;4.368;2023-04-07T11:07:53;8.45;;;3.67;;
35602;SDS011;21725;50.836;4.368;2023-04-07T11:15:15;9.88;;;4.65;;
35602;SDS011;21725;50.836;4.368;2023-04-07T11:18:29;8.85;;;4.20;;
35602;SDS011;21725;50.836;4.368;2023-04-07T11:21:33;10.18;;;4.13;;
35602;SDS011;21725;50.836;4.368;2023-04-07T11:24:36;12.18;;;5.57;;
35602;SDS011;21725;50.836;4.368;2023-04-07T11:27:37;14.65;;;3.90;;
35602;SDS011;21725;50.836;4.368;2023-04-07T11:30:44;10.38;;;3.60;;
35602;SDS011;21725;50.836;4.368;2023-04-07T11:33:51;24.52;;;8.75;;
35602;SDS011;21725;50.836;4.368;2023-04-07T11:37:21;9.35;;;4.57;;
35602;SDS011;21725;50.836;4.368;2023-04-07T11:40:37;9.95;;;4.57;;
35602;SDS011;21725;50.836;4.368;2023-04-07T11:43:41;10.25;;;4.47;;
35602;SDS011;21725;50.836;4.368;2023-04-07T11:50:40;6.40;;;3.97;;
35602;SDS011;21725;50.836;4.368;2023-04-07T11:53:42;9.73;;;3.75;;
35602;SDS011;21725;50.836;4.368;2023-04-07T11:57:03;9.18;;;3.78;;
35602;SDS011;21725;50.836;4.368;2023-04-07T12:00:15;12.60;;;3.72;;
35602;SDS011;21725;50.836;4.368;2023-04-07T12:03:33;12.70;;;4.13;;
35602;SDS011;21725;50.836;4.368;2023-04-07T12:06:46;11.13;;;5.05;;
35602;SDS011;21725;50.836;4.368;2023-04-07T12:10:20;9.80;;;4.25;;
35602;SDS011;21725;50.836;4.368;2023-04-07T12:13:25;11.65;;;4.03;;
35602;SDS011;21725;50.836;4.368;2023-04-07T12:16:28;11.07;;;4.47;;
35602;SDS011;21725;50.836;4.368;2023-04-07T12:19:30;8.15;;;3.38;;
35602;SDS011;21725;50.836;4.368;2023-04-07T12:22:34;7.50;;;3.00;;
35602;SDS011;21725;50.836;4.368;2023-04-07T12:25:45;9.68;;;3.47;;
35602;SDS011;21725;50.836;4.368;2023-04-07T12:28:56;10.05;;;4.40;;
35602;SDS011;21725;50.836;4.368;2023-04-07T12:32:08;15.73;;;5.55;;
35602;SDS011;21725;50.836;4.368;2023-04-07T12:35:09;13.45;;;4.32;;
35602;SDS011;21725;50.836;4.368;2023-04-07T12:38:13;9.63;;;4.35;;
35602;SDS011;21725;50.836;4.368;2023-04-07T12:41:23;6.88;;;2.90;;
35602;SDS011;21725;50.836;4.368;2023-04-07T12:44:29;9.60;;;2.90;;
35602;SDS011;21725;50.836;4.368;2023-04-07T12:47:31;9.38;;;3.60;;
35602;SDS011;21725;50.836;4.368;2023-04-07T12:50:35;8.27;;;3.53;;
35602;SDS011;21725;50.836;4.368;2023-04-07T12:53:41;10.80;;;4.30;;
35602;SDS011;21725;50.836;4.368;2023-04-07T12:56:46;10.80;;;4.00;;
35602;SDS011;21725;50.836;4.368;2023-04-07T12:59:50;10.93;;;4.90;;
35602;SDS011;21725;50.836;4.368;2023-04-07T13:02:53;15.50;;;5.22;;
35602;SDS011;21725;50.836;4.368;2023-04-07T13:05:56;10.40;;;3.95;;
35602;SDS011;21725;50.836;4.368;2023-04-07T13:09:02;7.70;;;3.70;;
35602;SDS011;21725;50.836;4.368;2023-04-07T13:12:06;6.72;;;3.55;;
35602;SDS011;21725;50.836;4.368;2023-04-07T13:15:24;9.57;;;3.30;;
35602;SDS011;21725;50.836;4.368;2023-04-07T13:18:29;10.27;;;3.75;;
35602;SDS011;21725;50.836;4.368;2023-04-07T13:21:32;8.45;;;4.35;;
35602;SDS011;21725;50.836;4.368;2023-04-07T13:24:35;6.43;;;2.97;;
35602;SDS011;21725;50.836;4.368;2023-04-07T13:27:41;8.43;;;4.18;;
35602;SDS011;21725;50.836;4.368;2023-04-07T13:30:47;8.68;;;3.50;;
35602;SDS011;21725;50.836;4.368;2023-04-07T13:33:53;11.38;;;4.15;;
35602;SDS011;21725;50.836;4.368;2023-04-07T13:36:56;8.50;;;3.42;;
35602;SDS011;21725;50.836;4.368;2023-04-07T13:39:57;10.02;;;3.33;;
35602;SDS011;21725;50.836;4.368;2023-04-07T13:43:08;9.32;;;2.58;;
35602;SDS011;21725;50.836;4.368;2023-04-07T13:46:32;6.85;;;3.50;;
35602;SDS011;21725;50.836;4.368;2023-04-07T13:49:35;8.27;;;3.67;;
35602;SDS011;21725;50.836;4.368;2023-04-07T13:52:52;5.85;;;2.70;;
35602;SDS011;21725;50.836;4.368;2023-04-07T13:56:00;6.55;;;3.45;;
35602;SDS011;21725;50.836;4.368;2023-04-07T13:59:08;7.82;;;2.97;;
35602;SDS011;21725;50.836;4.368;2023-04-07T14:02:16;10.18;;;3.78;;
35602;SDS011;21725;50.836;4.368;2023-04-07T14:05:25;5.85;;;2.65;;
35602;SDS011;21725;50.836;4.368;2023-04-07T14:08:26;6.85;;;2.92;;
35602;SDS011;21725;50.836;4.368;2023-04-07T14:11:26;10.07;;;3.30;;
35602;SDS011;21725;50.836;4.368;2023-04-07T14:14:30;18.55;;;4.85;;
35602;SDS011;21725;50.836;4.368;2023-04-07T14:17:38;10.00;;;3.58;;
35602;SDS011;21725;50.836;4.368;2023-04-07T14:20:47;8.75;;;3.65;;
35602;SDS011;21725;50.836;4.368;2023-04-07T14:23:50;8.55;;;3.38;;
35602;SDS011;21725;50.836;4.368;2023-04-07T14:27:04;10.82;;;3.55;;
35602;SDS011;21725;50.836;4.368;2023-04-07T14:30:05;12.13;;;4.22;;
35602;SDS011;21725;50.836;4.368;2023-04-07T14:33:07;8.50;;;3.45;;
35602;SDS011;21725;50.836;4.368;2023-04-07T14:36:18;7.80;;;3.85;;
35602;SDS011;21725;50.836;4.368;2023-04-07T14:39:26;7.68;;;4.10;;
35602;SDS011;21725;50.836;4.368;2023-04-07T14:42:38;13.43;;;5.25;;
35602;SDS011;21725;50.836;4.368;2023-04-07T14:45:42;7.97;;;3.92;;
35602;SDS011;21725;50.836;4.368;2023-04-07T14:48:43;8.88;;;3.63;;
35602;SDS011;21725;50.836;4.368;2023-04-07T14:51:48;8.65;;;3.45;;
35602;SDS011;21725;50.836;4.368;2023-04-07T14:55:00;10.85;;;4.18;;
35602;SDS011;21725;50.836;4.368;2023-04-07T14:58:14;6.75;;;2.60;;
35602;SDS011;21725;50.836;4.368;2023-04-07T15:01:15;6.68;;;3.80;;
35602;SDS011;21725;50.836;4.368;2023-04-07T15:04:16;7.00;;;2.60;;
35602;SDS011;21725;50.836;4.368;2023-04-07T15:07:22;9.70;;;3.00;;
35602;SDS011;21725;50.836;4.368;2023-04-07T15:10:31;4.50;;;2.70;;
35602;SDS011;21725;50.836;4.368;2023-04-07T15:13:34;7.70;;;2.95;;
35602;SDS011;21725;50.836;4.368;2023-04-07T15:16:44;8.15;;;2.85;;
35602;SDS011;21725;50.836;4.368;2023-04-07T15:19:49;8.93;;;2.83;;
35602;SDS011;21725;50.836;4.368;2023-04-07T15:23:08;9.07;;;2.25;;
35602;SDS011;21725;50.836;4.368;2023-04-07T15:26:16;8.57;;;3.20;;
35602;SDS011;21725;50.836;4.368;2023-04-07T15:29:17;10.90;;;3.03;;
35602;SDS011;21725;50.836;4.368;2023-04-07T15:32:23;13.88;;;5.45;;
35602;SDS011;21725;50.836;4.368;2023-04-07T15:35:23;6.40;;;3.15;;
35602;SDS011;21725;50.836;4.368;2023-04-07T15:38:26;11.15;;;4.57;;
35602;SDS011;21725;50.836;4.368;2023-04-07T15:41:38;5.82;;;2.92;;
35602;SDS011;21725;50.836;4.368;2023-04-07T15:44:44;7.97;;;3.00;;
35602;SDS011;21725;50.836;4.368;2023-04-07T15:47:51;6.25;;;2.75;;
35602;SDS011;21725;50.836;4.368;2023-04-07T15:51:03;9.25;;;2.95;;
35602;SDS011;21725;50.836;4.368;2023-04-07T15:54:15;12.05;;;4.47;;
35602;SDS011;21725;50.836;4.368;2023-04-07T15:57:40;10.55;;;4.40;;
35602;SDS011;21725;50.836;4.368;2023-04-07T16:00:43;12.35;;;4.78;;
35602;SDS011;21725;50.836;4.368;2023-04-07T16:03:53;11.50;;;3.25;;
35602;SDS011;21725;50.836;4.368;2023-04-07T16:41:18;14.68;;;4.97;;
35602;SDS011;21725;50.836;4.368;2023-04-07T16:44:22;9.50;;;3.90;;
35602;SDS011;21725;50.836;4.368;2023-04-07T16:47:33;11.45;;;3.75;;
35602;SDS011;21725;50.836;4.368;2023-04-07T16:50:46;13.27;;;4.85;;
35602;SDS011;21725;50.836;4.368;2023-04-07T16:53:52;11.18;;;4.82;;
35602;SDS011;21725;50.836;4.368;2023-04-07T16:56:53;13.68;;;4.18;;
35602;SDS011;21725;50.836;4.368;2023-04-07T16:59:57;17.63;;;9.52;;
35602;SDS011;21725;50.836;4.368;2023-04-07T17:03:08;9.02;;;4.32;;
35602;SDS011;21725;50.836;4.368;2023-04-07T17:06:17;12.93;;;5.00;;
35602;SDS011;21725;50.836;4.368;2023-04-07T17:09:20;7.22;;;3.65;;
35602;SDS011;21725;50.836;4.368;2023-04-07T17:12:24;12.05;;;4.18;;
35602;SDS011;21725;50.836;4.368;2023-04-07T17:15:35;11.77;;;3.20;;
35602;SDS011;21725;50.836;4.368;2023-04-07T17:18:50;10.35;;;4.85;;
35602;SDS011;21725;50.836;4.368;2023-04-07T17:21:51;10.95;;;5.07;;
35602;SDS011;21725;50.836;4.368;2023-04-07T17:24:54;11.70;;;4.28;;
35602;SDS011;21725;50.836;4.368;2023-04-07T17:28:17;7.95;;;4.00;;
35602;SDS011;21725;50.836;4.368;2023-04-07T17:31:20;15.95;;;6.05;;
35602;SDS011;21725;50.836;4.368;2023-04-07T17:34:27;11.55;;;5.35;;
35602;SDS011;21725;50.836;4.368;2023-04-07T17:37:39;17.17;;;5.00;;
35602;SDS011;21725;50.836;4.368;2023-04-07T17:40:40;9.88;;;3.35;;
35602;SDS011;21725;50.836;4.368;2023-04-07T17:43:44;9.45;;;4.00;;
35602;SDS011;21725;50.836;4.368;2023-04-07T17:46:51;9.73;;;3.75;;
35602;SDS011;21725;50.836;4.368;2023-04-07T17:50:01;12.93;;;4.15;;
35602;SDS011;21725;50.836;4.368;2023-04-07T17:53:07;7.40;;;3.03;;
35602;SDS011;21725;50.836;4.368;2023-04-07T17:56:10;12.68;;;4.13;;
35602;SDS011;21725;50.836;4.368;2023-04-07T17:59:22;10.95;;;4.07;;
35602;SDS011;21725;50.836;4.368;2023-04-07T18:02:28;8.98;;;3.38;;
35602;SDS011;21725;50.836;4.368;2023-04-07T18:05:42;11.70;;;4.93;;
35602;SDS011;21725;50.836;4.368;2023-04-07T18:08:48;8.75;;;3.33;;
35602;SDS011;21725;50.836;4.368;2023-04-07T18:11:51;9.68;;;4.38;;
35602;SDS011;21725;50.836;4.368;2023-04-07T18:14:52;13.25;;;5.43;;
35602;SDS011;21725;50.836;4.368;2023-04-07T18:18:27;14.25;;;5.55;;
35602;SDS011;21725;50.836;4.368;2023-04-07T18:21:28;7.15;;;3.00;;
35602;SDS011;21725;50.836;4.368;2023-04-07T18:24:56;10.43;;;2.90;;
35602;SDS011;21725;50.836;4.368;2023-04-07T18:28:05;13.77;;;4.43;;
35602;SDS011;21725;50.836;4.368;2023-04-07T18:31:13;17.40;;;6.38;;
35602;SDS011;21725;50.836;4.368;2023-04-07T18:34:19;8.85;;;3.83;;
35602;SDS011;21725;50.836;4.368;2023-04-07T18:37:30;9.15;;;4.50;;
35602;SDS011;21725;50.836;4.368;2023-04-07T18:40:48;9.48;;;4.07;;
35602;SDS011;21725;50.836;4.368;2023-04-07T18:43:51;10.52;;;3.60;;
35602;SDS011;21725;50.836;4.368;2023-04-07T18:46:55;9.93;;;3.50;;
35602;SDS011;21725;50.836;4.368;2023-04-07T18:50:18;5.75;;;2.78;;
35602;SDS011;21725;50.836;4.368;2023-04-07T18:53:28;7.53;;;3.63;;
35602;SDS011;21725;50.836;4.368;2023-04-07T18:56:34;9.02;;;3.90;;
35602;SDS011;21725;50.836;4.368;2023-04-07T18:59:37;9.65;;;4.63;;
35602;SDS011;21725;50.836;4.368;2023-04-07T19:02:42;7.75;;;3.42;;
35602;SDS011;21725;50.836;4.368;2023-04-07T19:05:50;6.50;;;2.90;;
35602;SDS011;21725;50.836;4.368;2023-04-07T19:09:01;8.73;;;3.35;;
35602;SDS011;21725;50.836;4.368;2023-04-07T19:12:30;10.10;;;3.63;;
35602;SDS011;21725;50.836;4.368;2023-04-07T19:15:33;9.82;;;3.45;;
35602;SDS011;21725;50.836;4.368;2023-04-07T19:18:39;9.05;;;3.97;;
35602;SDS011;21725;50.836;4.368;2023-04-07T19:21:52;9.95;;;4.60;;
35602;SDS011;21725;50.836;4.368;2023-04-07T19:25:05;14.80;;;5.85;;
35602;SDS011;21725;50.836;4.368;2023-04-07T19:28:12;10.07;;;3.65;;
35602;SDS011;21725;50.836;4.368;2023-04-07T19:31:15;15.20;;;5.22;;
35602;SDS011;21725;50.836;4.368;2023-04-07T19:34:24;11.68;;;4.20;;
35602;SDS011;21725;50.836;4.368;2023-04-07T19:37:33;13.48;;;3.15;;
35602;SDS011;21725;50.836;4.368;2023-04-07T19:40:37;10.38;;;3.85;;
35602;SDS011;21725;50.836;4.368;2023-04-07T19:43:40;8.30;;;4.00;;
35602;SDS011;21725;50.836;4.368;2023-04-07T19:46:41;13.10;;;5.47;;
35602;SDS011;21725;50.836;4.368;2023-04-07T19:50:05;14.93;;;5.30;;
35602;SDS011;21725;50.836;4.368;2023-04-07T19:53:20;16.25;;;4.40;;
35602;SDS011;21725;50.836;4.368;2023-04-07T19:56:30;13.23;;;4.82;;
35602;SDS011;21725;50.836;4.368;2023-04-07T19:59:34;13.35;;;4.75;;
35602;SDS011;21725;50.836;4.368;2023-04-07T20:02:37;13.52;;;6.47;;
35602;SDS011;21725;50.836;4.368;2023-04-07T20:05:43;15.85;;;7.32;;
35602;SDS011;21725;50.836;4.368;2023-04-07T20:08:46;15.57;;;5.68;;
35602;SDS011;21725;50.836;4.368;2023-04-07T20:11:54;13.63;;;4.75;;
35602;SDS011;21725;50.836;4.368;2023-04-07T20:15:28;9.88;;;5.00;;
35602;SDS011;21725;50.836;4.368;2023-04-07T20:18:34;20.10;;;6.05;;
35602;SDS011;21725;50.836;4.368;2023-04-07T20:21:39;11.90;;;6.05;;
35602;SDS011;21725;50.836;4.368;2023-04-07T20:24:45;15.90;;;5.93;;
35602;SDS011;21725;50.836;4.368;2023-04-07T20:27:49;11.07;;;4.72;;
35602;SDS011;21725;50.836;4.368;2023-04-07T20:30:50;13.18;;;5.65;;
35602;SDS011;21725;50.836;4.368;2023-04-07T20:33:57;18.23;;;6.57;;
35602;SDS011;21725;50.836;4.368;2023-04-07T20:37:07;14.70;;;4.40;;
35602;SDS011;21725;50.836;4.368;2023-04-07T20:40:18;16.95;;;5.47;;
35602;SDS011;21725;50.836;4.368;2023-04-07T20:43:35;11.18;;;3.92;;
35602;SDS011;21725;50.836;4.368;2023-04-07T20:46:38;9.55;;;4.90;;
35602;SDS011;21725;50.836;4.368;2023-04-07T20:49:42;10.68;;;4.20;;
35602;SDS011;21725;50.836;4.368;2023-04-07T20:53:05;12.43;;;4.75;;
35602;SDS011;21725;50.836;4.368;2023-04-07T20:56:08;10.75;;;4.60;;